createdAt,value
2017-11-08T00:00:19.376Z,4.9
2017-11-08T00:00:39.553Z,4.8
2017-11-08T00:00:59.730Z,4.8
2017-11-08T00:01:19.904Z,4.8
2017-11-08T00:01:40.071Z,4.8
2017-11-08T00:02:00.304Z,4.9
2017-11-08T00:02:20.471Z,4.8
2017-11-08T00:02:40.644Z,4.8
2017-11-08T00:03:00.808Z,4.8
2017-11-08T00:03:20.989Z,4.8
2017-11-08T00:03:41.154Z,4.8
2017-11-08T00:04:01.336Z,4.9
2017-11-08T00:04:21.507Z,4.8
2017-11-08T00:04:41.694Z,4.9
2017-11-08T00:05:01.948Z,4.8
2017-11-08T00:05:22.123Z,4.9
2017-11-08T00:05:42.301Z,4.8
2017-11-08T00:06:02.481Z,4.8
2017-11-08T00:06:22.640Z,4.8
2017-11-08T00:06:42.868Z,4.9
2017-11-08T00:07:03.048Z,4.8
2017-11-08T00:07:23.223Z,4.9
2017-11-08T00:07:43.392Z,4.9
2017-11-08T00:08:03.564Z,4.8
2017-11-08T00:08:23.806Z,4.8
2017-11-08T00:08:43.982Z,4.9
2017-11-08T00:09:04.159Z,4.9
2017-11-08T00:09:24.352Z,4.8
2017-11-08T00:09:44.525Z,4.8
2017-11-08T00:10:04.719Z,4.8
2017-11-08T00:10:24.882Z,4.8
2017-11-08T00:10:45.066Z,4.8
2017-11-08T00:11:05.246Z,4.8
2017-11-08T00:11:25.422Z,4.8
2017-11-08T00:11:45.592Z,4.8
2017-11-08T00:12:05.754Z,4.8
2017-11-08T00:12:25.926Z,4.9
2017-11-08T00:12:46.090Z,4.8
2017-11-08T00:13:06.251Z,4.8
2017-11-08T00:13:26.430Z,4.8
2017-11-08T00:13:46.598Z,4.8
2017-11-08T00:14:06.785Z,4.8
2017-11-08T00:14:26.961Z,4.8
2017-11-08T00:14:47.134Z,4.8
2017-11-08T00:15:07.311Z,4.8
2017-11-08T00:15:27.488Z,4.8
2017-11-08T00:15:47.649Z,4.8
2017-11-08T00:16:07.816Z,4.8
2017-11-08T00:16:29.628Z,4.8
2017-11-08T00:16:49.805Z,4.8
2017-11-08T00:17:09.976Z,4.7
2017-11-08T00:17:30.219Z,4.8
2017-11-08T00:17:50.484Z,4.8
2017-11-08T00:18:10.720Z,4.8
2017-11-08T00:18:31.052Z,4.8
2017-11-08T00:18:51.278Z,4.8
2017-11-08T00:19:11.459Z,4.8
2017-11-08T00:19:32.946Z,4.7
2017-11-08T00:19:53.116Z,4.8
2017-11-08T00:20:13.295Z,4.8
2017-11-08T00:20:33.478Z,4.8
2017-11-08T00:20:53.645Z,4.7
2017-11-08T00:21:13.819Z,4.8
2017-11-08T00:21:33.998Z,4.7
2017-11-08T00:21:54.164Z,4.8
2017-11-08T00:22:14.349Z,4.8
2017-11-08T00:22:34.513Z,4.7
2017-11-08T00:22:54.690Z,4.8
2017-11-08T00:23:14.869Z,4.8
2017-11-08T00:23:35.096Z,4.7
2017-11-08T00:23:55.286Z,4.8
2017-11-08T00:24:15.461Z,4.8
2017-11-08T00:24:35.644Z,4.8
2017-11-08T00:24:55.821Z,4.7
2017-11-08T00:25:16.004Z,4.7
2017-11-08T00:25:36.186Z,4.8
2017-11-08T00:25:56.365Z,4.7
2017-11-08T00:26:16.533Z,4.7
2017-11-08T00:26:36.714Z,4.7
2017-11-08T00:26:56.880Z,4.7
2017-11-08T00:27:17.046Z,4.7
2017-11-08T00:27:37.206Z,4.7
2017-11-08T00:27:57.378Z,4.7
2017-11-08T00:28:17.553Z,4.7
2017-11-08T00:28:37.724Z,4.7
2017-11-08T00:28:57.971Z,4.7
2017-11-08T00:29:18.138Z,4.6
2017-11-08T00:29:38.308Z,4.6
2017-11-08T00:29:58.499Z,4.7
2017-11-08T00:30:18.664Z,4.7
2017-11-08T00:30:38.843Z,4.7
2017-11-08T00:30:59.002Z,4.6
2017-11-08T00:31:19.222Z,4.6
2017-11-08T00:31:39.391Z,4.6
2017-11-08T00:31:59.563Z,4.6
2017-11-08T00:32:19.737Z,4.6
2017-11-08T00:32:39.896Z,4.5
2017-11-08T00:33:00.074Z,4.6
2017-11-08T00:33:20.244Z,4.6
2017-11-08T00:33:40.402Z,4.5
2017-11-08T00:34:00.570Z,4.6
2017-11-08T00:34:20.741Z,4.6
2017-11-08T00:34:40.966Z,4.6
2017-11-08T00:35:01.124Z,4.5
2017-11-08T00:35:21.346Z,4.6
2017-11-08T00:35:41.584Z,4.6
2017-11-08T00:36:01.760Z,4.6
2017-11-08T00:36:21.936Z,4.6
2017-11-08T00:36:42.102Z,4.5
2017-11-08T00:37:02.284Z,4.5
2017-11-08T00:37:22.462Z,4.5
2017-11-08T00:37:42.630Z,4.5
2017-11-08T00:38:02.806Z,4.5
2017-11-08T00:38:23.033Z,4.5
2017-11-08T00:38:43.195Z,4.5
2017-11-08T00:39:03.363Z,4.6
2017-11-08T00:39:23.538Z,4.6
2017-11-08T00:39:43.711Z,4.6
2017-11-08T00:40:03.883Z,4.5
2017-11-08T00:40:24.061Z,4.5
2017-11-08T00:40:44.229Z,4.5
2017-11-08T00:41:04.465Z,4.5
2017-11-08T00:41:24.645Z,4.5
2017-11-08T00:41:44.894Z,4.4
2017-11-08T00:42:05.066Z,4.5
2017-11-08T00:42:25.235Z,4.5
2017-11-08T00:42:45.414Z,4.5
2017-11-08T00:43:05.588Z,4.5
2017-11-08T00:43:25.758Z,4.5
2017-11-08T00:43:45.937Z,4.5
2017-11-08T00:44:06.112Z,4.5
2017-11-08T00:44:26.274Z,4.5
2017-11-08T00:44:46.481Z,4.4
2017-11-08T00:45:06.652Z,4.5
2017-11-08T00:45:26.819Z,4.5
2017-11-08T00:45:47.002Z,4.5
2017-11-08T00:46:07.181Z,4.5
2017-11-08T00:46:27.345Z,4.5
2017-11-08T00:46:47.514Z,4.4
2017-11-08T00:47:07.687Z,4.4
2017-11-08T00:47:27.873Z,4.3
2017-11-08T00:47:48.045Z,4.3
2017-11-08T00:48:08.227Z,4.5
2017-11-08T00:48:28.410Z,4.3
2017-11-08T00:48:48.576Z,4.3
2017-11-08T00:49:08.750Z,4.4
2017-11-08T00:49:28.990Z,4.3
2017-11-08T00:49:49.161Z,4.4
2017-11-08T00:50:09.398Z,4.4
2017-11-08T00:50:29.563Z,4.4
2017-11-08T00:50:49.740Z,4.4
2017-11-08T00:51:09.920Z,4.3
2017-11-08T00:51:30.092Z,4.4
2017-11-08T00:51:50.257Z,4.3
2017-11-08T00:52:10.481Z,4.3
2017-11-08T00:52:30.655Z,4.4
2017-11-08T00:52:50.836Z,4.4
2017-11-08T00:53:11.007Z,4.3
2017-11-08T00:53:31.184Z,4.4
2017-11-08T00:53:51.360Z,4.3
2017-11-08T00:54:11.595Z,4.3
2017-11-08T00:54:31.785Z,4.3
2017-11-08T00:54:51.957Z,4.3
2017-11-08T00:55:12.132Z,4.4
2017-11-08T00:55:32.308Z,4.4
2017-11-08T00:55:52.471Z,4.3
2017-11-08T00:56:12.660Z,4.3
2017-11-08T00:56:32.816Z,4.3
2017-11-08T00:56:52.993Z,4.3
2017-11-08T00:57:13.168Z,4.3
2017-11-08T00:57:33.348Z,4.4
2017-11-08T00:57:53.498Z,4.3
2017-11-08T00:58:13.682Z,4.3
2017-11-08T00:58:33.849Z,4.4
2017-11-08T00:58:54.103Z,4.3
2017-11-08T00:59:14.279Z,4.4
2017-11-08T00:59:34.461Z,4.4
2017-11-08T00:59:54.633Z,4.3
2017-11-08T01:00:14.815Z,4.4
2017-11-08T01:00:34.989Z,4.4
2017-11-08T01:00:55.161Z,4.4
2017-11-08T01:01:15.339Z,4.4
2017-11-08T01:01:35.529Z,4.4
2017-11-08T01:01:55.698Z,4.4
2017-11-08T01:02:15.885Z,4.4
2017-11-08T01:02:36.058Z,4.4
2017-11-08T01:02:56.242Z,4.4
2017-11-08T01:03:16.405Z,4.3
2017-11-08T01:03:36.587Z,4.4
2017-11-08T01:03:56.767Z,4.4
2017-11-08T01:04:16.997Z,4.3
2017-11-08T01:04:37.236Z,4.3
2017-11-08T01:04:57.406Z,4.4
2017-11-08T01:05:17.565Z,4.4
2017-11-08T01:05:37.762Z,4.4
2017-11-08T01:05:57.934Z,4.4
2017-11-08T01:06:18.107Z,4.3
2017-11-08T01:06:38.284Z,4.3
2017-11-08T01:06:58.772Z,4.3
2017-11-08T01:07:18.940Z,4.4
2017-11-08T01:07:39.128Z,4.4
2017-11-08T01:07:59.312Z,4.3
2017-11-08T01:08:19.495Z,4.4
2017-11-08T01:08:39.665Z,4.4
2017-11-08T01:08:59.842Z,4.4
2017-11-08T01:09:20.029Z,4.4
2017-11-08T01:09:40.206Z,4.4
2017-11-08T01:10:00.376Z,4.3
2017-11-08T01:10:20.539Z,4.4
2017-11-08T01:10:40.713Z,4.4
2017-11-08T01:11:00.882Z,4.3
2017-11-08T01:11:21.064Z,4.4
2017-11-08T01:11:41.239Z,4.4
2017-11-08T01:12:01.434Z,4.3
2017-11-08T01:12:21.636Z,4.4
2017-11-08T01:12:41.819Z,4.3
2017-11-08T01:13:02.028Z,4.4
2017-11-08T01:13:22.203Z,4.4
2017-11-08T01:13:42.435Z,4.4
2017-11-08T01:14:02.612Z,4.4
2017-11-08T01:14:22.803Z,4.5
2017-11-08T01:14:42.985Z,4.5
2017-11-08T01:15:03.160Z,4.5
2017-11-08T01:15:23.330Z,4.5
2017-11-08T01:15:43.560Z,4.5
2017-11-08T01:16:03.734Z,4.5
2017-11-08T01:16:23.904Z,4.5
2017-11-08T01:16:44.158Z,4.5
2017-11-08T01:17:04.319Z,4.5
2017-11-08T01:17:24.496Z,4.5
2017-11-08T01:17:44.680Z,4.5
2017-11-08T01:18:04.846Z,4.5
2017-11-08T01:18:25.014Z,4.5
2017-11-08T01:18:45.180Z,4.5
2017-11-08T01:19:05.350Z,4.5
2017-11-08T01:19:25.525Z,4.5
2017-11-08T01:19:45.711Z,4.5
2017-11-08T01:20:05.884Z,4.5
2017-11-08T01:20:26.042Z,4.5
2017-11-08T01:20:46.227Z,4.5
2017-11-08T01:21:06.401Z,4.5
2017-11-08T01:21:26.562Z,4.5
2017-11-08T01:21:46.748Z,4.4
2017-11-08T01:22:06.936Z,4.4
2017-11-08T01:22:27.103Z,4.4
2017-11-08T01:22:47.270Z,4.4
2017-11-08T01:23:07.441Z,4.5
2017-11-08T01:23:27.616Z,4.5
2017-11-08T01:23:47.793Z,4.5
2017-11-08T01:24:07.965Z,4.4
2017-11-08T01:24:28.140Z,4.5
2017-11-08T01:24:48.324Z,4.4
2017-11-08T01:25:08.484Z,4.5
2017-11-08T01:25:28.651Z,4.5
2017-11-08T01:25:48.877Z,4.5
2017-11-08T01:26:09.038Z,4.5
2017-11-08T01:26:29.199Z,4.5
2017-11-08T01:26:49.430Z,4.5
2017-11-08T01:27:09.592Z,4.5
2017-11-08T01:27:29.757Z,4.5
2017-11-08T01:27:49.934Z,4.4
2017-11-08T01:28:10.107Z,4.3
2017-11-08T01:28:30.277Z,4.4
2017-11-08T01:28:50.453Z,4.3
2017-11-08T01:29:10.681Z,4.4
2017-11-08T01:29:30.852Z,4.3
2017-11-08T01:29:51.111Z,4.4
2017-11-08T01:30:11.285Z,4.4
2017-11-08T01:30:31.445Z,4.4
2017-11-08T01:30:51.608Z,4.3
2017-11-08T01:31:11.785Z,4.3
2017-11-08T01:31:31.972Z,4.3
2017-11-08T01:31:52.200Z,4.4
2017-11-08T01:32:12.372Z,4.3
2017-11-08T01:32:32.544Z,4.3
2017-11-08T01:32:52.722Z,4.3
2017-11-08T01:33:12.917Z,4.3
2017-11-08T01:33:33.160Z,4.3
2017-11-08T01:33:53.328Z,4.4
2017-11-08T01:34:13.498Z,4.4
2017-11-08T01:34:34.716Z,4.4
2017-11-08T01:34:54.894Z,4.4
2017-11-08T01:35:15.061Z,4.4
2017-11-08T01:35:35.240Z,4.3
2017-11-08T01:35:55.422Z,4.3
2017-11-08T01:36:15.600Z,4.3
2017-11-08T01:36:35.785Z,4.4
2017-11-08T01:36:55.956Z,4.3
2017-11-08T01:37:17.198Z,4.4
2017-11-08T01:37:37.422Z,4.5
2017-11-08T01:37:57.605Z,4.4
2017-11-08T01:38:17.781Z,4.4
2017-11-08T01:38:37.952Z,4.4
2017-11-08T01:38:58.123Z,4.4
2017-11-08T01:39:18.298Z,4.4
2017-11-08T01:39:38.492Z,4.5
2017-11-08T01:39:58.667Z,4.4
2017-11-08T01:40:18.896Z,4.4
2017-11-08T01:40:39.068Z,4.4
2017-11-08T01:40:59.237Z,4.4
2017-11-08T01:41:19.399Z,4.5
2017-11-08T01:41:39.577Z,4.5
2017-11-08T01:41:59.769Z,4.4
2017-11-08T01:42:19.948Z,4.4
2017-11-08T01:42:40.123Z,4.4
2017-11-08T01:43:00.299Z,4.4
2017-11-08T01:43:20.503Z,4.5
2017-11-08T01:43:40.856Z,4.4
2017-11-08T01:44:01.026Z,4.4
2017-11-08T01:44:21.198Z,4.3
2017-11-08T01:44:41.379Z,4.4
2017-11-08T01:45:01.547Z,4.4
2017-11-08T01:45:21.742Z,4.4
2017-11-08T01:45:41.915Z,4.4
2017-11-08T01:46:02.091Z,4.3
2017-11-08T01:46:22.259Z,4.4
2017-11-08T01:46:42.438Z,4.4
2017-11-08T01:47:02.603Z,4.4
2017-11-08T01:47:22.773Z,4.4
2017-11-08T01:47:42.964Z,4.4
2017-11-08T01:48:03.180Z,4.4
2017-11-08T01:48:23.354Z,4.4
2017-11-08T01:48:43.536Z,4.3
2017-11-08T01:49:03.702Z,4.3
2017-11-08T01:49:23.884Z,4.3
2017-11-08T01:49:44.061Z,4.3
2017-11-08T01:50:04.250Z,4.3
2017-11-08T01:50:24.425Z,4.3
2017-11-08T01:50:44.617Z,4.2
2017-11-08T01:51:04.802Z,4.2
2017-11-08T01:51:24.984Z,4.1
2017-11-08T01:51:45.214Z,4.1
2017-11-08T01:52:05.383Z,4.2
2017-11-08T01:52:25.552Z,4.2
2017-11-08T01:52:45.730Z,4.2
2017-11-08T01:53:05.899Z,4.1
2017-11-08T01:53:26.076Z,4.2
2017-11-08T01:53:46.260Z,4.2
2017-11-08T01:54:06.432Z,4.2
2017-11-08T01:54:26.620Z,4.2
2017-11-08T01:54:46.792Z,4.2
2017-11-08T01:55:06.983Z,4.1
2017-11-08T01:55:27.294Z,4.1
2017-11-08T01:55:47.476Z,4.1
2017-11-08T01:56:07.656Z,4.1
2017-11-08T01:56:27.844Z,4.1
2017-11-08T01:56:48.020Z,4.1
2017-11-08T01:57:08.210Z,4.1
2017-11-08T01:57:28.378Z,4.1
2017-11-08T01:57:48.606Z,4.1
2017-11-08T01:58:08.780Z,4
2017-11-08T01:58:28.960Z,4.1
2017-11-08T01:58:49.129Z,4
2017-11-08T01:59:09.288Z,4.1
2017-11-08T01:59:29.560Z,4
2017-11-08T01:59:49.721Z,4
2017-11-08T02:00:09.884Z,4
2017-11-08T02:00:30.069Z,4.1
2017-11-08T02:00:50.249Z,4
2017-11-08T02:01:10.427Z,4
2017-11-08T02:01:30.599Z,4.1
2017-11-08T02:01:50.776Z,4.1
2017-11-08T02:02:11.016Z,4.1
2017-11-08T02:02:31.218Z,4
2017-11-08T02:02:51.441Z,4
2017-11-08T02:03:11.619Z,4
2017-11-08T02:03:31.788Z,4
2017-11-08T02:03:51.956Z,4
2017-11-08T02:04:12.125Z,4
2017-11-08T02:04:32.288Z,4
2017-11-08T02:04:52.451Z,3.9
2017-11-08T02:05:12.637Z,4
2017-11-08T02:05:32.821Z,4
2017-11-08T02:05:52.998Z,4
2017-11-08T02:06:13.178Z,3.9
2017-11-08T02:06:33.341Z,4
2017-11-08T02:06:53.524Z,4
2017-11-08T02:07:13.700Z,4
2017-11-08T02:07:33.866Z,3.9
2017-11-08T02:07:54.049Z,3.9
2017-11-08T02:08:14.228Z,3.9
2017-11-08T02:08:34.404Z,3.8
2017-11-08T02:08:54.576Z,3.8
2017-11-08T02:09:14.823Z,3.9
2017-11-08T02:09:35.013Z,3.8
2017-11-08T02:09:55.193Z,3.9
2017-11-08T02:10:15.369Z,3.8
2017-11-08T02:10:35.552Z,3.8
2017-11-08T02:10:55.724Z,3.8
2017-11-08T02:11:15.896Z,3.7
2017-11-08T02:11:36.075Z,3.8
2017-11-08T02:11:56.239Z,3.8
2017-11-08T02:12:16.413Z,3.8
2017-11-08T02:12:36.646Z,3.9
2017-11-08T02:12:56.874Z,3.8
2017-11-08T02:13:17.049Z,3.8
2017-11-08T02:13:37.213Z,3.8
2017-11-08T02:13:57.403Z,3.8
2017-11-08T02:14:17.575Z,3.8
2017-11-08T02:14:37.735Z,3.8
2017-11-08T02:14:57.905Z,3.7
2017-11-08T02:15:18.078Z,3.8
2017-11-08T02:15:38.248Z,3.7
2017-11-08T02:15:58.416Z,3.7
2017-11-08T02:16:18.576Z,3.7
2017-11-08T02:16:38.750Z,3.7
2017-11-08T02:16:58.912Z,3.7
2017-11-08T02:17:19.083Z,3.7
2017-11-08T02:17:39.252Z,3.6
2017-11-08T02:17:59.429Z,3.6
2017-11-08T02:18:19.608Z,3.6
2017-11-08T02:18:39.796Z,3.6
2017-11-08T02:18:59.960Z,3.6
2017-11-08T02:19:20.138Z,3.7
2017-11-08T02:19:40.312Z,3.7
2017-11-08T02:20:00.481Z,3.6
2017-11-08T02:20:20.651Z,3.5
2017-11-08T02:20:40.849Z,3.7
2017-11-08T02:21:01.032Z,3.7
2017-11-08T02:21:21.199Z,3.7
2017-11-08T02:21:41.375Z,3.7
2017-11-08T02:22:01.544Z,3.7
2017-11-08T02:22:21.724Z,3.6
2017-11-08T02:22:41.886Z,3.6
2017-11-08T02:23:02.045Z,3.6
2017-11-08T02:23:22.223Z,3.6
2017-11-08T02:23:42.393Z,3.5
2017-11-08T02:24:02.568Z,3.6
2017-11-08T02:24:22.731Z,3.6
2017-11-08T02:24:42.907Z,3.6
2017-11-08T02:25:03.086Z,3.5
2017-11-08T02:25:23.253Z,3.6
2017-11-08T02:25:43.498Z,3.5
2017-11-08T02:26:03.673Z,3.6
2017-11-08T02:26:23.836Z,3.5
2017-11-08T02:26:44.065Z,3.5
2017-11-08T02:27:04.253Z,3.5
2017-11-08T02:27:24.424Z,3.5
2017-11-08T02:27:44.595Z,3.5
2017-11-08T02:28:04.773Z,3.5
2017-11-08T02:28:24.949Z,3.5
2017-11-08T02:28:45.128Z,3.5
2017-11-08T02:29:05.294Z,3.4
2017-11-08T02:29:25.468Z,3.5
2017-11-08T02:29:45.766Z,3.5
2017-11-08T02:30:06.065Z,3.5
2017-11-08T02:30:26.241Z,3.4
2017-11-08T02:30:46.427Z,3.4
2017-11-08T02:31:06.600Z,3.5
2017-11-08T02:31:26.766Z,3.4
2017-11-08T02:31:46.943Z,3.4
2017-11-08T02:32:07.117Z,3.4
2017-11-08T02:32:27.291Z,3.4
2017-11-08T02:32:47.462Z,3.5
2017-11-08T02:33:07.621Z,3.4
2017-11-08T02:33:27.871Z,3.4
2017-11-08T02:33:48.044Z,3.5
2017-11-08T02:34:08.211Z,3.4
2017-11-08T02:34:28.397Z,3.4
2017-11-08T02:34:48.629Z,3.4
2017-11-08T02:35:08.802Z,3.5
2017-11-08T02:35:28.963Z,3.5
2017-11-08T02:35:49.127Z,3.5
2017-11-08T02:36:09.297Z,3.5
2017-11-08T02:36:29.464Z,3.5
2017-11-08T02:36:49.636Z,3.4
2017-11-08T02:37:09.856Z,3.5
2017-11-08T02:37:30.035Z,3.4
2017-11-08T02:37:50.277Z,3.4
2017-11-08T02:38:10.457Z,3.5
2017-11-08T02:38:30.656Z,3.5
2017-11-08T02:38:50.819Z,3.4
2017-11-08T02:39:10.992Z,3.5
2017-11-08T02:39:31.179Z,3.5
2017-11-08T02:39:51.364Z,3.5
2017-11-08T02:40:11.558Z,3.6
2017-11-08T02:40:31.714Z,3.6
2017-11-08T02:40:51.884Z,3.7
2017-11-08T02:41:12.062Z,3.7
2017-11-08T02:41:32.291Z,3.7
2017-11-08T02:41:52.465Z,3.7
2017-11-08T02:42:12.629Z,3.7
2017-11-08T02:42:32.803Z,3.7
2017-11-08T02:42:52.973Z,3.7
2017-11-08T02:43:13.176Z,3.7
2017-11-08T02:43:33.413Z,3.7
2017-11-08T02:43:53.602Z,3.6
2017-11-08T02:44:13.769Z,3.7
2017-11-08T02:44:33.935Z,3.7
2017-11-08T02:44:54.101Z,3.7
2017-11-08T02:45:14.331Z,3.8
2017-11-08T02:45:34.510Z,3.7
2017-11-08T02:45:54.692Z,3.7
2017-11-08T02:46:14.871Z,3.8
2017-11-08T02:46:35.041Z,3.8
2017-11-08T02:46:55.209Z,3.8
2017-11-08T02:47:15.383Z,3.8
2017-11-08T02:47:35.556Z,3.7
2017-11-08T02:47:55.842Z,3.7
2017-11-08T02:48:16.021Z,3.8
2017-11-08T02:48:36.208Z,3.9
2017-11-08T02:48:56.382Z,3.8
2017-11-08T02:49:16.558Z,3.7
2017-11-08T02:49:36.741Z,3.8
2017-11-08T02:49:56.901Z,3.7
2017-11-08T02:50:17.074Z,3.8
2017-11-08T02:50:37.247Z,3.8
2017-11-08T02:50:57.426Z,3.7
2017-11-08T02:51:17.653Z,3.8
2017-11-08T02:51:37.844Z,3.8
2017-11-08T02:51:58.021Z,3.7
2017-11-08T02:52:18.215Z,3.8
2017-11-08T02:52:38.385Z,3.8
2017-11-08T02:52:58.545Z,3.8
2017-11-08T02:53:18.724Z,3.9
2017-11-08T02:53:38.899Z,3.8
2017-11-08T02:53:59.086Z,3.8
2017-11-08T02:54:19.273Z,3.9
2017-11-08T02:54:39.441Z,3.8
2017-11-08T02:54:59.620Z,3.8
2017-11-08T02:55:19.854Z,3.8
2017-11-08T02:55:40.034Z,3.8
2017-11-08T02:56:00.208Z,3.9
2017-11-08T02:56:20.380Z,3.8
2017-11-08T02:56:40.560Z,3.9
2017-11-08T02:57:00.751Z,3.9
2017-11-08T02:57:20.972Z,4
2017-11-08T02:57:41.147Z,3.9
2017-11-08T02:58:01.336Z,4
2017-11-08T02:58:21.513Z,4
2017-11-08T02:58:41.679Z,4
2017-11-08T02:59:01.854Z,4
2017-11-08T02:59:22.032Z,4
2017-11-08T02:59:42.296Z,4.1
2017-11-08T03:00:02.464Z,3.9
2017-11-08T03:00:22.649Z,3.9
2017-11-08T03:00:42.816Z,4
2017-11-08T03:01:03.035Z,3.9
2017-11-08T03:01:23.213Z,3.9
2017-11-08T03:01:43.386Z,3.9
2017-11-08T03:02:03.569Z,3.9
2017-11-08T03:02:23.745Z,4
2017-11-08T03:02:43.911Z,4.1
2017-11-08T03:03:04.094Z,4
2017-11-08T03:03:24.257Z,4
2017-11-08T03:03:44.438Z,4.1
2017-11-08T03:04:04.614Z,4
2017-11-08T03:04:24.796Z,4
2017-11-08T03:04:44.976Z,4
2017-11-08T03:05:05.147Z,4.1
2017-11-08T03:05:25.313Z,4
2017-11-08T03:05:45.474Z,4.1
2017-11-08T03:06:05.637Z,4
2017-11-08T03:06:25.832Z,4
2017-11-08T03:06:45.998Z,4.1
2017-11-08T03:07:06.169Z,4.1
2017-11-08T03:07:26.339Z,4
2017-11-08T03:07:46.516Z,4
2017-11-08T03:08:06.697Z,4
2017-11-08T03:08:26.865Z,4.2
2017-11-08T03:08:47.047Z,4.2
2017-11-08T03:09:07.226Z,4
2017-11-08T03:09:27.399Z,4.1
2017-11-08T03:09:47.586Z,4.2
2017-11-08T03:10:07.760Z,4.2
2017-11-08T03:10:27.931Z,4.1
2017-11-08T03:10:48.101Z,4.1
2017-11-08T03:11:08.281Z,4.1
2017-11-08T03:11:28.482Z,4
2017-11-08T03:11:48.661Z,4.2
2017-11-08T03:12:08.842Z,4.1
2017-11-08T03:12:29.009Z,4.1
2017-11-08T03:12:49.200Z,4
2017-11-08T03:13:09.376Z,4.1
2017-11-08T03:13:29.548Z,4
2017-11-08T03:13:49.912Z,4.1
2017-11-08T03:14:10.096Z,4
2017-11-08T03:14:30.268Z,4.1
2017-11-08T03:14:50.446Z,4.1
2017-11-08T03:15:10.610Z,4
2017-11-08T03:15:30.872Z,4
2017-11-08T03:15:51.066Z,4
2017-11-08T03:16:11.244Z,4
2017-11-08T03:16:31.418Z,4.1
2017-11-08T03:16:51.593Z,4.1
2017-11-08T03:17:11.783Z,4
2017-11-08T03:17:31.960Z,4
2017-11-08T03:17:52.131Z,4
2017-11-08T03:18:12.319Z,4
2017-11-08T03:18:32.492Z,4
2017-11-08T03:18:52.674Z,4.1
2017-11-08T03:19:12.856Z,4
2017-11-08T03:19:33.021Z,4.1
2017-11-08T03:19:53.252Z,4.1
2017-11-08T03:20:13.426Z,4.2
2017-11-08T03:20:33.593Z,4.2
2017-11-08T03:20:53.827Z,4.1
2017-11-08T03:21:14.006Z,4.1
2017-11-08T03:21:34.177Z,4.2
2017-11-08T03:21:54.347Z,4.1
2017-11-08T03:22:14.522Z,4
2017-11-08T03:22:34.694Z,4
2017-11-08T03:22:54.875Z,4
2017-11-08T03:23:15.108Z,4
2017-11-08T03:23:35.284Z,4
2017-11-08T03:23:55.453Z,4
2017-11-08T03:24:15.895Z,4
2017-11-08T03:24:36.080Z,4
2017-11-08T03:24:56.258Z,4
2017-11-08T03:25:16.423Z,3.9
2017-11-08T03:25:36.595Z,3.9
2017-11-08T03:25:56.767Z,4
2017-11-08T03:26:16.946Z,4
2017-11-08T03:26:37.118Z,4
2017-11-08T03:26:57.322Z,3.9
2017-11-08T03:27:17.499Z,4
2017-11-08T03:27:37.657Z,4
2017-11-08T03:27:57.851Z,4
2017-11-08T03:28:18.020Z,4
2017-11-08T03:28:38.194Z,4
2017-11-08T03:28:58.488Z,3.9
2017-11-08T03:29:18.714Z,4
2017-11-08T03:29:38.890Z,4
2017-11-08T03:29:59.055Z,4
2017-11-08T03:30:19.215Z,3.9
2017-11-08T03:30:39.388Z,4
2017-11-08T03:30:59.555Z,4
2017-11-08T03:31:19.798Z,3.9
2017-11-08T03:31:39.984Z,4
2017-11-08T03:32:00.172Z,4
2017-11-08T03:32:20.341Z,4
2017-11-08T03:32:40.570Z,3.9
2017-11-08T03:33:00.741Z,4
2017-11-08T03:33:20.970Z,4
2017-11-08T03:33:41.159Z,4
2017-11-08T03:34:01.324Z,4
2017-11-08T03:34:21.495Z,4
2017-11-08T03:34:41.678Z,4
2017-11-08T03:35:01.913Z,4
2017-11-08T03:35:22.082Z,4
2017-11-08T03:35:42.259Z,4.1
2017-11-08T03:36:02.434Z,4
2017-11-08T03:36:22.610Z,4
2017-11-08T03:36:42.802Z,4
2017-11-08T03:37:03.035Z,4.1
2017-11-08T03:37:23.205Z,4.2
2017-11-08T03:37:43.380Z,4.1
2017-11-08T03:38:03.616Z,4.1
2017-11-08T03:38:23.791Z,4.2
2017-11-08T03:38:43.965Z,4.2
2017-11-08T03:39:04.142Z,4.2
2017-11-08T03:39:24.319Z,4.2
2017-11-08T03:39:44.493Z,4.2
2017-11-08T03:40:04.677Z,4.2
2017-11-08T03:40:24.848Z,4.3
2017-11-08T03:40:45.019Z,4.3
2017-11-08T03:41:05.247Z,4.3
2017-11-08T03:41:25.426Z,4.3
2017-11-08T03:41:45.589Z,4.3
2017-11-08T03:42:05.778Z,4.3
2017-11-08T03:42:25.944Z,4.4
2017-11-08T03:42:46.182Z,4.4
2017-11-08T03:43:06.350Z,4.4
2017-11-08T03:43:26.519Z,4.4
2017-11-08T03:43:46.739Z,4.3
2017-11-08T03:44:06.914Z,4.3
2017-11-08T03:44:27.074Z,4.4
2017-11-08T03:44:47.257Z,4.4
2017-11-08T03:45:07.420Z,4.4
2017-11-08T03:45:27.601Z,4.4
2017-11-08T03:45:47.778Z,4.5
2017-11-08T03:46:07.958Z,4.5
2017-11-08T03:46:28.141Z,4.5
2017-11-08T03:46:48.302Z,4.5
2017-11-08T03:47:08.534Z,4.5
2017-11-08T03:47:28.774Z,4.5
2017-11-08T03:47:48.940Z,4.5
2017-11-08T03:48:09.105Z,4.5
2017-11-08T03:48:29.278Z,4.5
2017-11-08T03:48:49.450Z,4.5
2017-11-08T03:49:09.624Z,4.5
2017-11-08T03:49:29.796Z,4.5
2017-11-08T03:49:49.973Z,4.6
2017-11-08T03:50:10.141Z,4.6
2017-11-08T03:50:31.016Z,4.6
2017-11-08T03:50:51.192Z,4.6
2017-11-08T03:51:11.384Z,4.6
2017-11-08T03:51:31.560Z,4.6
2017-11-08T03:51:51.742Z,4.7
2017-11-08T03:52:11.922Z,4.6
2017-11-08T03:52:32.107Z,4.6
2017-11-08T03:52:52.278Z,4.6
2017-11-08T03:53:12.447Z,4.6
2017-11-08T03:53:32.628Z,4.7
2017-11-08T03:53:52.806Z,4.6
2017-11-08T03:54:12.985Z,4.7
2017-11-08T03:54:33.158Z,4.7
2017-11-08T03:54:53.340Z,4.7
2017-11-08T03:55:13.551Z,4.7
2017-11-08T03:55:33.740Z,4.7
2017-11-08T03:55:53.916Z,4.7
2017-11-08T03:56:14.105Z,4.7
2017-11-08T03:56:34.276Z,4.7
2017-11-08T03:56:54.458Z,4.7
2017-11-08T03:57:14.630Z,4.7
2017-11-08T03:57:34.810Z,4.7
2017-11-08T03:57:54.980Z,4.7
2017-11-08T03:58:15.154Z,4.7
2017-11-08T03:58:35.333Z,4.7
2017-11-08T03:58:55.507Z,4.8
2017-11-08T03:59:15.760Z,4.8
2017-11-08T03:59:35.949Z,4.8
2017-11-08T03:59:56.109Z,4.8
2017-11-08T04:00:16.342Z,4.8
2017-11-08T04:00:36.512Z,4.8
2017-11-08T04:00:56.689Z,4.8
2017-11-08T04:01:16.858Z,4.7
2017-11-08T04:01:37.022Z,4.8
2017-11-08T04:01:57.256Z,4.7
2017-11-08T04:02:17.421Z,4.8
2017-11-08T04:02:37.587Z,4.8
2017-11-08T04:02:57.762Z,4.8
2017-11-08T04:03:17.934Z,4.8
2017-11-08T04:03:38.161Z,4.8
2017-11-08T04:03:58.344Z,4.8
2017-11-08T04:04:18.519Z,4.8
2017-11-08T04:04:38.689Z,4.8
2017-11-08T04:04:58.921Z,4.8
2017-11-08T04:05:19.097Z,4.9
2017-11-08T04:05:39.268Z,4.9
2017-11-08T04:05:59.452Z,4.8
2017-11-08T04:06:19.634Z,4.8
2017-11-08T04:06:39.804Z,4.8
2017-11-08T04:06:59.977Z,4.8
2017-11-08T04:07:20.165Z,4.8
2017-11-08T04:07:40.349Z,4.8
2017-11-08T04:08:00.527Z,4.8
2017-11-08T04:08:20.693Z,4.9
2017-11-08T04:08:40.860Z,4.9
2017-11-08T04:09:01.033Z,4.9
2017-11-08T04:09:21.266Z,4.9
2017-11-08T04:09:41.441Z,4.9
2017-11-08T04:10:01.633Z,4.8
2017-11-08T04:10:21.801Z,4.8
2017-11-08T04:10:41.972Z,4.8
2017-11-08T04:11:02.502Z,4.8
2017-11-08T04:11:22.753Z,4.8
2017-11-08T04:11:43.621Z,4.8
2017-11-08T04:12:06.951Z,5
2017-11-08T04:12:27.138Z,4.9
2017-11-08T04:12:47.305Z,4.9
2017-11-08T04:13:07.488Z,5
2017-11-08T04:13:27.655Z,5
2017-11-08T04:13:47.831Z,5
2017-11-08T04:14:08.008Z,5
2017-11-08T04:14:28.429Z,5
2017-11-08T04:14:48.886Z,5
2017-11-08T04:15:09.074Z,4.9
2017-11-08T04:15:29.255Z,5
2017-11-08T04:15:49.421Z,4.9
2017-11-08T04:16:09.593Z,5
2017-11-08T04:16:29.768Z,4.9
2017-11-08T04:16:49.933Z,5
2017-11-08T04:17:10.792Z,5
2017-11-08T04:17:30.975Z,5
2017-11-08T04:17:51.144Z,4.9
2017-11-08T04:18:11.322Z,5
2017-11-08T04:18:31.492Z,5
2017-11-08T04:18:51.654Z,5
2017-11-08T04:19:11.884Z,5
2017-11-08T04:19:32.050Z,5
2017-11-08T04:19:52.226Z,5
2017-11-08T04:20:12.650Z,5
2017-11-08T04:20:32.887Z,4.9
2017-11-08T04:20:53.061Z,5
2017-11-08T04:21:13.246Z,5
2017-11-08T04:21:33.420Z,5
2017-11-08T04:21:53.601Z,5
2017-11-08T04:22:13.792Z,5
2017-11-08T04:22:33.973Z,5
2017-11-08T04:22:54.140Z,5
2017-11-08T04:23:14.330Z,5
2017-11-08T04:23:34.502Z,5
2017-11-08T04:23:54.907Z,4.9
2017-11-08T04:24:15.102Z,4.9
2017-11-08T04:24:35.264Z,5
2017-11-08T04:24:55.430Z,5
2017-11-08T04:25:15.637Z,5
2017-11-08T04:25:35.805Z,5
2017-11-08T04:25:55.986Z,4.9
2017-11-08T04:26:16.155Z,5
2017-11-08T04:26:36.327Z,5
2017-11-08T04:26:57.129Z,5
2017-11-08T04:27:17.323Z,4.9
2017-11-08T04:27:37.512Z,5
2017-11-08T04:27:57.686Z,5
2017-11-08T04:28:17.849Z,5
2017-11-08T04:28:38.021Z,5
2017-11-08T04:28:58.208Z,5
2017-11-08T04:29:18.375Z,5
2017-11-08T04:29:38.551Z,5
2017-11-08T04:29:58.766Z,4.9
2017-11-08T04:30:19.380Z,5
2017-11-08T04:30:39.558Z,5
2017-11-08T04:30:59.743Z,4.9
2017-11-08T04:31:19.987Z,5
2017-11-08T04:31:40.158Z,5
2017-11-08T04:32:00.343Z,4.8
2017-11-08T04:32:20.507Z,4.9
2017-11-08T04:32:40.693Z,4.9
2017-11-08T04:33:00.932Z,4.9
2017-11-08T04:33:21.119Z,4.9
2017-11-08T04:33:41.313Z,4.8
2017-11-08T04:34:01.719Z,4.8
2017-11-08T04:34:21.958Z,4.9
2017-11-08T04:34:42.122Z,4.9
2017-11-08T04:35:02.297Z,4.8
2017-11-08T04:35:22.477Z,4.9
2017-11-08T04:35:42.695Z,4.8
2017-11-08T04:36:02.875Z,5
2017-11-08T04:36:23.045Z,5
2017-11-08T04:36:43.215Z,5
2017-11-08T04:37:03.559Z,5
2017-11-08T04:37:23.730Z,5
2017-11-08T04:37:43.909Z,4.9
2017-11-08T04:38:04.078Z,5
2017-11-08T04:38:24.256Z,5.1
2017-11-08T04:38:44.434Z,5
2017-11-08T04:39:04.612Z,5
2017-11-08T04:39:24.790Z,5
2017-11-08T04:39:44.964Z,4.9
2017-11-08T04:40:05.141Z,4.9
2017-11-08T04:40:25.306Z,5
2017-11-08T04:40:45.488Z,4.9
2017-11-08T04:41:05.667Z,5
2017-11-08T04:41:25.840Z,5
2017-11-08T04:41:46.008Z,5